Time;durP1;ratioP1;P1;durP2;ratioP2;P2;SDS_P1;SDS_P2;PMS_P1;PMS_P2;Temp;Humidity;BMP_temperature;BMP_pressure;BME280_temperature;BME280_humidity;BME280_pressure;Samples;Min_cycle;Max_cycle;Signal;HPM_P1;HPM_P2
2022/05/06 00:01:30;;;;;;;;;;;;;;;;;;5054605;28;1160;-72
2022/05/06 00:03:55;;;;;;;;;;;;;;;;;;5061321;28;1902;-72
2022/05/06 00:06:21;;;;;;;;;;;;;;;;;;5065933;28;1568;-72
2022/05/06 00:08:46;;;;;;;;;;;;;;;;;;5064098;28;1383;-71
2022/05/06 00:11:11;;;;;;;;;;;;;;;;;;5063703;28;1375;-71
2022/05/06 00:13:37;;;;;;;;;;;;;;;;;;5064749;28;1416;-71
2022/05/06 00:16:03;;;;;;;;;;;;;;;;;;5063704;28;1064;-71
2022/05/06 00:18:30;;;;;;;;;;;;;;;;;;5065099;28;1518;-71
2022/05/06 00:20:55;;;;;;;;;;;;;;;;;;5063368;28;1373;-72
2022/05/06 00:23:20;;;;;;;;;;;;;;;;;;5064878;28;1890;-72
2022/05/06 00:25:46;;;;;;;;;;;;;;;;;;5065049;28;1577;-72
2022/05/06 00:28:12;;;;;;;;;;;;;;;;;;5063476;28;1573;-72
2022/05/06 00:30:37;;;;;;;;;;;;;;;;;;5054880;28;1379;-72
2022/05/06 00:33:02;;;;;;;;;;;;;;;;;;5064628;28;1167;-71
2022/05/06 00:35:27;;;;;;;;;;;;;;;;;;5064761;28;1434;-71
2022/05/06 00:37:53;;;;;;;;;;;;;;;;;;5064594;28;1278;-71
2022/05/06 00:40:18;;;;;;;;;;;;;;;;;;5062232;28;1502;-71
2022/05/06 00:42:43;;;;;;;;;;;;;;;;;;5063599;28;1551;-71
2022/05/06 00:45:08;;;;;;;;;;;;;;;;;;5054129;28;1897;-71
2022/05/06 00:47:34;;;;;;;;;;;;;;;;;;5051490;28;1629;-72
2022/05/06 00:50:00;;;;;;;;;;;;;;;;;;5062851;28;1486;-72
2022/05/06 00:52:26;;;;;;;;;;;;;;;;;;5064483;28;1127;-72
2022/05/06 00:54:51;;;;;;;;;;;;;;;;;;5064588;28;1078;-72
2022/05/06 00:57:17;;;;;;;;;;;;;;;;;;5064846;28;1668;-71
2022/05/06 01:02:26;;;;;;;;;;;;;;;;;;5064659;28;1167;-71
2022/05/06 01:04:52;;;;;;;;;;;;;;;;;;5063704;28;1898;-71
2022/05/06 01:07:19;;;;;;;;;;;;;;;;;;5061542;28;1474;-72
2022/05/06 01:09:44;;;;;;;;;;;;;;;;;;5063652;28;1208;-72
2022/05/06 01:12:09;;;;;;;;;;;;;;;;;;5062948;28;1506;-72
2022/05/06 01:14:36;;;;;;;;;;;;;;;;;;5063383;28;1332;-73
2022/05/06 01:17:01;;;;;;;;;;;;;;;;;;5053781;28;1426;-73
2022/05/06 01:19:26;;;;;;;;;;;;;;;;;;5063582;28;1339;-73
2022/05/06 01:21:55;;;;;;;;;;;;;;;;;;5063744;28;1522;-74
2022/05/06 01:24:20;;;;;;;;;;;;;;;;;;5062762;28;1984;-74
2022/05/06 01:26:55;;;;;;;;;;;;;;;;;;5063944;28;1001;-73
2022/05/06 01:29:21;;;;;;;;;;;;;;;;;;5063964;28;1282;-73
2022/05/06 01:31:46;;;;;;;;;;;;;;;;;;5063840;28;1000;-73
2022/05/06 01:34:14;;;;;;;;;;;;;;;;;;5060769;28;1378;-73
2022/05/06 01:36:40;;;;;;;;;;;;;;;;;;5056139;28;1152;-73
2022/05/06 01:39:06;;;;;;;;;;;;;;;;;;5063316;28;1399;-73
2022/05/06 01:41:35;;;;;;;;;;;;;;;;;;5064265;28;877;-71
2022/05/06 01:44:03;;;;;;;;;;;;;;;;;;5062510;28;1874;-72
2022/05/06 01:46:29;;;;;;;;;;;;;;;;;;5061713;28;1361;-72
2022/05/06 01:48:55;;;;;;;;;;;;;;;;;;5061773;28;1346;-72
2022/05/06 01:51:22;;;;;;;;;;;;;;;;;;5060323;28;1328;-72
2022/05/06 01:53:47;;;;;;;;;;;;;;;;;;5061037;28;1312;-73
2022/05/06 01:56:12;;;;;;;;;;;;;;;;;;5062091;28;1549;-73
2022/05/06 01:58:38;;;;;;;;;;;;;;;;;;5062872;28;1239;-73
2022/05/06 02:01:04;;;;;;;;;;;;;;;;;;5062734;28;1193;-73
2022/05/06 02:06:13;;;;;;;;;;;;;;;;;;5060142;28;1427;-73
2022/05/06 02:08:38;;;;;;;;;;;;;;;;;;5060211;28;1359;-73
2022/05/06 02:11:05;;;;;;;;;;;;;;;;;;5062905;28;1096;-71
2022/05/06 02:13:32;;;;;;;;;;;;;;;;;;5063798;28;1565;-70
2022/05/06 02:15:58;;;;;;;;;;;;;;;;;;5063001;28;810;-71
2022/05/06 02:18:23;;;;;;;;;;;;;;;;;;5062279;28;1360;-70
2022/05/06 02:20:48;;;;;;;;;;;;;;;;;;5063045;28;1156;-71
2022/05/06 02:23:14;;;;;;;;;;;;;;;;;;5061066;28;1964;-71
2022/05/06 02:25:39;;;;;;;;;;;;;;;;;;5063079;28;1124;-71
2022/05/06 02:28:04;;;;;;;;;;;;;;;;;;5062804;28;1192;-71
2022/05/06 02:33:13;;;;;;;;;;;;;;;;;;5061705;28;1283;-71
2022/05/06 02:35:40;;;;;;;;;;;;;;;;;;5062299;28;1172;-71
2022/05/06 02:38:08;;;;;;;;;;;;;;;;;;5060843;28;1577;-71
2022/05/06 02:40:34;;;;;;;;;;;;;;;;;;5062591;28;889;-72
2022/05/06 02:43:00;;;;;;;;;;;;;;;;;;5061802;28;1898;-71
2022/05/06 02:45:25;;;;;;;;;;;;;;;;;;5062756;28;1210;-72
2022/05/06 02:47:50;;;;;;;;;;;;;;;;;;5062089;28;1482;-72
2022/05/06 02:50:15;;;;;;;;;;;;;;;;;;5062616;28;1617;-72
2022/05/06 02:52:40;;;;;;;;;;;;;;;;;;5061519;28;1322;-72
2022/05/06 02:55:06;;;;;;;;;;;;;;;;;;5061228;28;1399;-72
2022/05/06 02:57:31;;;;;;;;;;;;;;;;;;5062052;28;1329;-71
2022/05/06 02:59:56;;;;;;;;;;;;;;;;;;5061453;28;1032;-71
2022/05/06 03:02:23;;;;;;;;;;;;;;;;;;5061782;28;1346;-70
2022/05/06 03:04:48;;;;;;;;;;;;;;;;;;5061838;28;1889;-72
2022/05/06 03:07:13;;;;;;;;;;;;;;;;;;5062183;28;1169;-72
2022/05/06 03:09:39;;;;;;;;;;;;;;;;;;5061879;28;1558;-72
2022/05/06 03:12:05;;;;;;;;;;;;;;;;;;5062180;28;834;-72
2022/05/06 03:14:30;;;;;;;;;;;;;;;;;;5061248;28;1415;-72
2022/05/06 03:16:55;;;;;;;;;;;;;;;;;;5062307;28;1214;-72
2022/05/06 03:19:21;;;;;;;;;;;;;;;;;;5062829;28;1487;-72
2022/05/06 03:21:51;;;;;;;;;;;;;;;;;;5062593;28;903;-71
2022/05/06 03:24:17;;;;;;;;;;;;;;;;;;5055936;28;1973;-71
2022/05/06 03:26:42;;;;;;;;;;;;;;;;;;5064119;28;1455;-71
2022/05/06 03:29:07;;;;;;;;;;;;;;;;;;5065669;28;1356;-71
2022/05/06 03:31:32;;;;;;;;;;;;;;;;;;5059308;28;1117;-71
2022/05/06 03:33:58;;;;;;;;;;;;;;;;;;5069744;28;1569;-71
2022/05/06 03:36:24;;;;;;;;;;;;;;;;;;5070689;28;1167;-71
2022/05/06 03:38:49;;;;;;;;;;;;;;;;;;5064686;28;1648;-71
2022/05/06 03:41:14;;;;;;;;;;;;;;;;;;5066659;28;941;-72
2022/05/06 03:43:40;;;;;;;;;;;;;;;;;;5066250;28;1893;-71
2022/05/06 03:46:05;;;;;;;;;;;;;;;;;;5058308;28;1250;-71
2022/05/06 03:48:30;;;;;;;;;;;;;;;;;;5047171;28;1318;-71
2022/05/06 03:53:39;;;;;;;;;;;;;;;;;;5051684;28;1434;-71
2022/05/06 03:56:05;;;;;;;;;;;;;;;;;;5066557;28;1384;-72
2022/05/06 03:58:30;;;;;;;;;;;;;;;;;;5065225;28;1384;-72
2022/05/06 04:00:56;;;;;;;;;;;;;;;;;;5058733;28;1398;-71
2022/05/06 04:03:21;;;;;;;;;;;;;;;;;;5066545;28;1902;-71
2022/05/06 04:05:46;;;;;;;;;;;;;;;;;;5067456;28;1577;-72
2022/05/06 04:08:12;;;;;;;;;;;;;;;;;;5073273;28;1358;-72
2022/05/06 04:10:37;;;;;;;;;;;;;;;;;;5067296;28;1451;-72
2022/05/06 04:13:05;;;;;;;;;;;;;;;;;;5066352;28;1644;-72
2022/05/06 04:15:32;;;;;;;;;;;;;;;;;;5067137;28;1601;-72
2022/05/06 04:17:58;;;;;;;;;;;;;;;;;;5067256;28;1407;-72
2022/05/06 04:25:50;;;;;;;;;;;;;;;;;;5063015;28;1343;-72
2022/05/06 04:28:16;;;;;;;;;;;;;;;;;;5061906;28;1655;-71
2022/05/06 04:30:41;;;;;;;;;;;;;;;;;;5062590;28;1534;-71
2022/05/06 04:33:06;;;;;;;;;;;;;;;;;;5062087;28;1372;-72
2022/05/06 04:35:33;;;;;;;;;;;;;;;;;;5062066;28;1383;-71
2022/05/06 04:37:58;;;;;;;;;;;;;;;;;;5061341;28;1375;-71
2022/05/06 04:40:23;;;;;;;;;;;;;;;;;;5061938;28;1443;-71
2022/05/06 04:42:49;;;;;;;;;;;;;;;;;;5062622;28;1220;-71
2022/05/06 04:45:14;;;;;;;;;;;;;;;;;;5062278;28;1958;-72
2022/05/06 04:47:39;;;;;;;;;;;;;;;;;;5062730;28;1308;-71
2022/05/06 04:50:05;;;;;;;;;;;;;;;;;;5061047;28;1375;-71
2022/05/06 04:52:31;;;;;;;;;;;;;;;;;;5064120;28;1160;-71
2022/05/06 04:54:56;;;;;;;;;;;;;;;;;;5065904;28;1530;-71
2022/05/06 04:57:21;;;;;;;;;;;;;;;;;;5063759;28;1511;-71
2022/05/06 04:59:49;;;;;;;;;;;;;;;;;;5065307;28;1451;-72
2022/05/06 05:02:15;;;;;;;;;;;;;;;;;;5064597;28;1198;-72
2022/05/06 05:04:41;;;;;;;;;;;;;;;;;;5064746;28;1959;-72
2022/05/06 05:07:07;;;;;;;;;;;;;;;;;;5063945;28;1430;-72
2022/05/06 05:09:32;;;;;;;;;;;;;;;;;;5063846;28;1250;-72
2022/05/06 05:11:57;;;;;;;;;;;;;;;;;;5064508;28;1545;-73
2022/05/06 05:14:23;;;;;;;;;;;;;;;;;;5065164;28;1199;-73
2022/05/06 05:16:50;;;;;;;;;;;;;;;;;;5064313;28;1514;-72
2022/05/06 05:19:15;;;;;;;;;;;;;;;;;;5055547;28;1350;-71
2022/05/06 05:21:40;;;;;;;;;;;;;;;;;;5064111;28;1152;-70
2022/05/06 05:24:06;;;;;;;;;;;;;;;;;;5055839;28;1960;-73
2022/05/06 05:26:31;;;;;;;;;;;;;;;;;;5051844;28;1316;-71
2022/05/06 05:28:56;;;;;;;;;;;;;;;;;;5062017;28;1197;-73
2022/05/06 05:31:21;;;;;;;;;;;;;;;;;;5061404;28;1423;-73
2022/05/06 05:33:46;;;;;;;;;;;;;;;;;;5063486;28;1215;-72
2022/05/06 05:36:12;;;;;;;;;;;;;;;;;;5063277;28;1335;-71
2022/05/06 05:38:38;;;;;;;;;;;;;;;;;;5061977;28;1372;-71
2022/05/06 05:41:04;;;;;;;;;;;;;;;;;;5063570;28;1286;-70
2022/05/06 05:48:57;;;;;;;;;;;;;;;;;;5062666;28;1232;-71
2022/05/06 05:51:22;;;;;;;;;;;;;;;;;;5062073;28;1376;-70
2022/05/06 05:53:47;;;;;;;;;;;;;;;;;;5061597;28;1225;-70
2022/05/06 05:56:12;;;;;;;;;;;;;;;;;;5061555;28;1483;-70
2022/05/06 05:58:37;;;;;;;;;;;;;;;;;;5062468;28;1286;-72
2022/05/06 06:01:03;;;;;;;;;;;;;;;;;;5060372;28;1262;-72
2022/05/06 06:03:28;;;;;;;;;;;;;;;;;;5062958;28;1902;-72
2022/05/06 06:05:53;;;;;;;;;;;;;;;;;;5062305;28;1215;-72
2022/05/06 06:08:19;;;;;;;;;;;;;;;;;;5062659;28;1236;-71
2022/05/06 06:10:44;;;;;;;;;;;;;;;;;;5062666;28;1226;-70
2022/05/06 06:13:09;;;;;;;;;;;;;;;;;;5062874;28;1277;-71
2022/05/06 06:15:34;;;;;;;;;;;;;;;;;;5060950;28;1431;-70
2022/05/06 06:18:00;;;;;;;;;;;;;;;;;;5062675;28;1275;-69
2022/05/06 06:20:26;;;;;;;;;;;;;;;;;;5062889;28;1266;-69
2022/05/06 06:22:51;;;;;;;;;;;;;;;;;;5062022;28;1322;-70
2022/05/06 06:25:16;;;;;;;;;;;;;;;;;;5061657;28;1956;-70
2022/05/06 06:27:43;;;;;;;;;;;;;;;;;;5061992;28;1338;-69
2022/05/06 06:30:09;;;;;;;;;;;;;;;;;;5061689;28;1314;-70
2022/05/06 06:32:35;;;;;;;;;;;;;;;;;;5062615;28;1216;-70
2022/05/06 06:35:00;;;;;;;;;;;;;;;;;;5078226;28;1287;-70
2022/05/06 06:37:27;;;;;;;;;;;;;;;;;;5060473;28;1331;-70
2022/05/06 06:39:52;;;;;;;;;;;;;;;;;;5061467;28;1329;-68
2022/05/06 06:42:17;;;;;;;;;;;;;;;;;;5062306;28;1263;-68
2022/05/06 06:44:43;;;;;;;;;;;;;;;;;;5061427;28;1894;-69
2022/05/06 06:47:09;;;;;;;;;;;;;;;;;;5059845;28;1513;-68
2022/05/06 06:49:34;;;;;;;;;;;;;;;;;;5061038;28;1303;-69
2022/05/06 06:51:59;;;;;;;;;;;;;;;;;;5062402;28;1274;-70
2022/05/06 06:54:24;;;;;;;;;;;;;;;;;;5058921;28;1288;-69
2022/05/06 06:56:50;;;;;;;;;;;;;;;;;;5060172;28;1301;-68
2022/05/06 06:59:15;;;;;;;;;;;;;;;;;;5061077;28;1379;-69
2022/05/06 07:01:40;;;;;;;;;;;;;;;;;;5061828;28;1219;-69
2022/05/06 07:04:05;;;;;;;;;;;;;;;;;;5061664;28;1894;-70
2022/05/06 07:11:59;;;;;;;;;;;;;;;;;;5056744;28;1300;-70
2022/05/06 07:14:25;;;;;;;;;;;;;;;;;;5061915;28;1550;-70
2022/05/06 07:16:51;;;;;;;;;;;;;;;;;;5061125;28;1263;-70
2022/05/06 07:19:16;;;;;;;;;;;;;;;;;;5060362;28;1423;-70
2022/05/06 07:21:41;;;;;;;;;;;;;;;;;;5061554;28;1287;-71
2022/05/06 07:24:07;;;;;;;;;;;;;;;;;;5058407;28;1965;-70
2022/05/06 07:26:32;;;;;;;;;;;;;;;;;;5061683;28;1439;-70
2022/05/06 07:28:57;;;;;;;;;;;;;;;;;;5056784;28;1351;-70
2022/05/06 07:31:23;;;;;;;;;;;;;;;;;;5058945;28;1306;-70
2022/05/06 07:33:49;;;;;;;;;;;;;;;;;;5059569;28;1439;-70
2022/05/06 07:36:15;;;;;;;;;;;;;;;;;;5060969;28;1243;-70
2022/05/06 07:38:40;;;;;;;;;;;;;;;;;;5057525;28;1328;-70
2022/05/06 07:41:05;;;;;;;;;;;;;;;;;;5061585;28;1215;-70
2022/05/06 07:43:30;;;;;;;;;;;;;;;;;;5061937;28;1905;-70
2022/05/06 07:45:56;;;;;;;;;;;;;;;;;;5054237;28;1565;-70
2022/05/06 07:48:21;;;;;;;;;;;;;;;;;;5060875;28;1391;-70
2022/05/06 07:50:46;;;;;;;;;;;;;;;;;;5060313;28;1153;-70
2022/05/06 07:53:12;;;;;;;;;;;;;;;;;;5061138;28;1283;-70
2022/05/06 07:55:38;;;;;;;;;;;;;;;;;;5059937;28;1367;-67
2022/05/06 07:58:04;;;;;;;;;;;;;;;;;;5059070;28;1395;-67
2022/05/06 08:00:30;;;;;;;;;;;;;;;;;;5063456;28;1329;-68
2022/05/06 08:05:39;;;;;;;;;;;;;;;;;;5061246;28;1529;-67
2022/05/06 08:08:05;;;;;;;;;;;;;;;;;;5060167;28;1557;-67
2022/05/06 08:10:30;;;;;;;;;;;;;;;;;;5064928;28;1718;-69
2022/05/06 08:12:55;;;;;;;;;;;;;;;;;;5059846;28;1644;-66
2022/05/06 08:15:21;;;;;;;;;;;;;;;;;;5058109;28;1520;-66
2022/05/06 08:17:46;;;;;;;;;;;;;;;;;;5060120;28;1283;-67
2022/05/06 08:20:12;;;;;;;;;;;;;;;;;;5059874;28;1529;-67
2022/05/06 08:22:37;;;;;;;;;;;;;;;;;;5059855;28;1416;-67
2022/05/06 08:25:06;;;;;;;;;;;;;;;;;;5058860;28;1913;-68
2022/05/06 08:27:35;;;;;;;;;;;;;;;;;;5062331;28;1344;-68
2022/05/06 08:30:01;;;;;;;;;;;;;;;;;;5061685;28;1418;-67
2022/05/06 08:32:26;;;;;;;;;;;;;;;;;;5062778;28;1379;-67
2022/05/06 08:34:51;;;;;;;;;;;;;;;;;;5063115;28;1357;-67
2022/05/06 08:37:16;;;;;;;;;;;;;;;;;;5062416;28;1409;-67
2022/05/06 08:39:42;;;;;;;;;;;;;;;;;;5062381;28;1574;-67
2022/05/06 08:42:08;;;;;;;;;;;;;;;;;;5062379;28;1322;-67
2022/05/06 08:52:47;;;;;;;;;;;;;;;;;;5057900;28;1311;-68
2022/05/06 08:55:12;;;;;;;;;;;;;;;;;;5061510;28;1359;-67
2022/05/06 08:57:37;;;;;;;;;;;;;;;;;;5060243;28;1484;-67
2022/05/06 09:00:03;;;;;;;;;;;;;;;;;;5062371;28;1306;-66
2022/05/06 09:02:29;;;;;;;;;;;;;;;;;;5061212;28;1342;-67
2022/05/06 09:04:54;;;;;;;;;;;;;;;;;;5062660;28;1965;-66
2022/05/06 09:07:21;;;;;;;;;;;;;;;;;;5063053;28;1104;-66
2022/05/06 09:10:19;;;;;;;;;;;;;;;;;;5062636;28;1254;-67
2022/05/06 09:12:45;;;;;;;;;;;;;;;;;;5035916;28;1333;-67
2022/05/06 09:17:56;;;;;;;;;;;;;;;;;;5060748;28;1350;-66
2022/05/06 09:20:22;;;;;;;;;;;;;;;;;;5061612;28;1410;-66
2022/05/06 09:22:50;;;;;;;;;;;;;;;;;;5060386;28;1335;-66
2022/05/06 09:25:35;;;;;;;;;;;;;;;;;;5059229;28;1906;-66
2022/05/06 09:28:00;;;;;;;;;;;;;;;;;;5059095;28;1371;-67
2022/05/06 09:30:25;;;;;;;;;;;;;;;;;;5059283;28;3345;-66
2022/05/06 09:32:51;;;;;;;;;;;;;;;;;;5054795;28;2626;-67
2022/05/06 09:35:16;;;;;;;;;;;;;;;;;;5059356;28;1291;-67
2022/05/06 09:37:42;;;;;;;;;;;;;;;;;;5058596;28;1220;-66
2022/05/06 09:40:08;;;;;;;;;;;;;;;;;;5059202;28;2535;-67
2022/05/06 09:42:34;;;;;;;;;;;;;;;;;;5059316;28;1192;-67
2022/05/06 09:45:00;;;;;;;;;;;;;;;;;;5056404;28;3538;-67
2022/05/06 09:47:25;;;;;;;;;;;;;;;;;;5058393;28;1387;-68
2022/05/06 09:49:52;;;;;;;;;;;;;;;;;;5059054;28;1382;-68
2022/05/06 09:52:17;;;;;;;;;;;;;;;;;;5059850;28;1412;-67
2022/05/06 09:54:43;;;;;;;;;;;;;;;;;;5056429;28;1258;-66
2022/05/06 09:57:12;;;;;;;;;;;;;;;;;;5058491;28;1347;-67
2022/05/06 09:59:38;;;;;;;;;;;;;;;;;;5058513;28;1414;-68
2022/05/06 10:02:04;;;;;;;;;;;;;;;;;;5058816;28;1438;-70
2022/05/06 10:04:29;;;;;;;;;;;;;;;;;;5061811;28;1894;-69
2022/05/06 10:06:57;;;;;;;;;;;;;;;;;;5061595;28;1321;-71
2022/05/06 10:09:22;;;;;;;;;;;;;;;;;;5061176;28;1373;-65
2022/05/06 10:11:51;;;;;;;;;;;;;;;;;;5058846;28;1393;-67
2022/05/06 10:14:17;;;;;;;;;;;;;;;;;;5059065;28;1088;-67
2022/05/06 10:16:42;;;;;;;;;;;;;;;;;;5061197;28;1262;-66
2022/05/06 10:19:26;;;;;;;;;;;;;;;;;;5059533;28;1381;-67
2022/05/06 10:21:52;;;;;;;;;;;;;;;;;;5059952;28;1385;-67
2022/05/06 10:24:17;;;;;;;;;;;;;;;;;;5059692;28;1894;-67
2022/05/06 10:26:45;;;;;;;;;;;;;;;;;;5060466;28;1343;-67
2022/05/06 10:32:28;;;;;;;;;;;;;;;;;;5059571;28;1351;-67
2022/05/06 10:35:02;;;;;;;;;;;;;;;;;;5060293;28;1507;-67
2022/05/06 10:37:45;;;;;;;;;;;;;;;;;;5059089;28;1291;-67
2022/05/06 10:40:23;;;;;;;;;;;;;;;;;;5058409;28;1274;-66
2022/05/06 10:42:48;;;;;;;;;;;;;;;;;;5059546;28;1227;-67
2022/05/06 10:45:23;;;;;;;;;;;;;;;;;;5060399;28;1894;-67
2022/05/06 10:47:49;;;;;;;;;;;;;;;;;;5058934;28;1307;-67
2022/05/06 10:50:15;;;;;;;;;;;;;;;;;;5059990;28;1738;-66
2022/05/06 10:52:41;;;;;;;;;;;;;;;;;;5060442;28;1258;-67
2022/05/06 10:55:07;;;;;;;;;;;;;;;;;;5059561;28;1211;-68
2022/05/06 10:57:44;;;;;;;;;;;;;;;;;;5060638;28;1315;-68
2022/05/06 11:00:10;;;;;;;;;;;;;;;;;;5059497;28;1224;-68
2022/05/06 11:02:37;;;;;;;;;;;;;;;;;;5060552;28;1436;-66
2022/05/06 11:05:03;;;;;;;;;;;;;;;;;;5059823;28;1951;-67
2022/05/06 11:07:30;;;;;;;;;;;;;;;;;;5059104;28;1541;-66
2022/05/06 11:09:56;;;;;;;;;;;;;;;;;;5059013;28;1538;-68
2022/05/06 11:12:34;;;;;;;;;;;;;;;;;;5060028;28;1282;-66
2022/05/06 11:15:10;;;;;;;;;;;;;;;;;;5059284;28;1302;-67
2022/05/06 11:17:35;;;;;;;;;;;;;;;;;;5057643;28;2660;-66
2022/05/06 11:20:02;;;;;;;;;;;;;;;;;;5059522;28;1264;-66
2022/05/06 11:22:27;;;;;;;;;;;;;;;;;;5058465;28;1396;-66
2022/05/06 11:24:56;;;;;;;;;;;;;;;;;;5055492;28;2623;-66
2022/05/06 11:27:21;;;;;;;;;;;;;;;;;;5058709;28;1340;-66
2022/05/06 11:29:46;;;;;;;;;;;;;;;;;;5059602;28;1203;-68
2022/05/06 11:32:11;;;;;;;;;;;;;;;;;;5054081;28;1549;-67
2022/05/06 11:34:38;;;;;;;;;;;;;;;;;;5059195;28;1347;-68
2022/05/06 11:37:04;;;;;;;;;;;;;;;;;;5058614;28;1263;-68
2022/05/06 11:39:32;;;;;;;;;;;;;;;;;;5059053;28;1283;-69
2022/05/06 11:42:17;;;;;;;;;;;;;;;;;;5058561;28;1137;-68
2022/05/06 11:47:29;;;;;;;;;;;;;;;;;;5057996;28;1314;-67
2022/05/06 11:49:55;;;;;;;;;;;;;;;;;;5059599;28;1267;-68
2022/05/06 11:52:20;;;;;;;;;;;;;;;;;;5059275;28;1180;-68
2022/05/06 11:54:49;;;;;;;;;;;;;;;;;;5054819;28;1245;-68
2022/05/06 11:57:14;;;;;;;;;;;;;;;;;;5058616;28;1115;-68
2022/05/06 11:59:39;;;;;;;;;;;;;;;;;;5058903;28;1283;-71
2022/05/06 12:02:05;;;;;;;;;;;;;;;;;;5061848;28;1220;-68
2022/05/06 12:04:31;;;;;;;;;;;;;;;;;;5062576;28;1965;-69
2022/05/06 12:06:56;;;;;;;;;;;;;;;;;;5063273;28;1600;-70
2022/05/06 12:09:29;;;;;;;;;;;;;;;;;;5062798;28;1243;-68
2022/05/06 12:12:04;;;;;;;;;;;;;;;;;;5061421;28;1309;-68
2022/05/06 12:14:29;;;;;;;;;;;;;;;;;;5059460;28;1407;-69
2022/05/06 12:16:55;;;;;;;;;;;;;;;;;;5063003;28;1389;-68
2022/05/06 12:19:41;;;;;;;;;;;;;;;;;;5062682;28;1401;-68
2022/05/06 12:22:06;;;;;;;;;;;;;;;;;;5061695;28;1180;-70
2022/05/06 12:24:42;;;;;;;;;;;;;;;;;;5062936;28;1902;-69
2022/05/06 12:27:08;;;;;;;;;;;;;;;;;;5060612;28;1548;-68
2022/05/06 12:29:40;;;;;;;;;;;;;;;;;;5062120;28;1410;-67
2022/05/06 12:32:06;;;;;;;;;;;;;;;;;;5060046;28;1145;-69
2022/05/06 12:34:32;;;;;;;;;;;;;;;;;;5062674;28;1452;-70
2022/05/06 12:37:11;;;;;;;;;;;;;;;;;;5055948;28;1704;-69
2022/05/06 12:39:41;;;;;;;;;;;;;;;;;;5057018;28;1743;-72
2022/05/06 12:42:13;;;;;;;;;;;;;;;;;;5054177;28;1589;-70
2022/05/06 12:44:38;;;;;;;;;;;;;;;;;;5058930;28;1890;-69
2022/05/06 12:47:14;;;;;;;;;;;;;;;;;;5061490;28;1364;-71
2022/05/06 12:49:39;;;;;;;;;;;;;;;;;;5060601;28;1432;-71
2022/05/06 12:52:05;;;;;;;;;;;;;;;;;;5061919;28;1420;-68
2022/05/06 12:54:31;;;;;;;;;;;;;;;;;;5059910;28;1444;-68
2022/05/06 12:56:57;;;;;;;;;;;;;;;;;;5062190;28;1654;-71
2022/05/06 12:59:22;;;;;;;;;;;;;;;;;;5061459;28;1495;-69
2022/05/06 13:01:48;;;;;;;;;;;;;;;;;;5062175;28;1270;-69
2022/05/06 13:04:13;;;;;;;;;;;;;;;;;;5061444;28;1890;-70
2022/05/06 13:06:38;;;;;;;;;;;;;;;;;;5060342;28;1373;-68
2022/05/06 13:09:03;;;;;;;;;;;;;;;;;;5061992;28;1313;-67
2022/05/06 13:11:29;;;;;;;;;;;;;;;;;;5061930;28;1243;-67
2022/05/06 13:13:54;;;;;;;;;;;;;;;;;;5061301;28;1337;-68
2022/05/06 13:16:19;;;;;;;;;;;;;;;;;;5060341;28;1274;-68
2022/05/06 13:18:45;;;;;;;;;;;;;;;;;;5062369;28;1318;-68
2022/05/06 13:21:10;;;;;;;;;;;;;;;;;;5061485;28;1372;-68
2022/05/06 13:23:35;;;;;;;;;;;;;;;;;;5062219;28;1961;-69
2022/05/06 13:26:02;;;;;;;;;;;;;;;;;;5062166;28;1251;-69
2022/05/06 13:28:27;;;;;;;;;;;;;;;;;;5061700;28;1365;-67
2022/05/06 13:30:52;;;;;;;;;;;;;;;;;;5061564;28;1293;-67
2022/05/06 13:33:17;;;;;;;;;;;;;;;;;;5059627;28;1411;-68
2022/05/06 13:35:43;;;;;;;;;;;;;;;;;;5059829;28;1264;-67
2022/05/06 13:38:09;;;;;;;;;;;;;;;;;;5060733;28;1299;-67
2022/05/06 13:40:37;;;;;;;;;;;;;;;;;;5061163;28;1394;-67
2022/05/06 13:43:02;;;;;;;;;;;;;;;;;;5060033;28;1239;-66
2022/05/06 13:45:28;;;;;;;;;;;;;;;;;;5061888;28;1965;-69
2022/05/06 13:47:54;;;;;;;;;;;;;;;;;;5059198;28;1291;-68
2022/05/06 13:50:19;;;;;;;;;;;;;;;;;;5061033;28;1309;-69
2022/05/06 13:52:44;;;;;;;;;;;;;;;;;;5060257;28;1511;-69
2022/05/06 13:55:09;;;;;;;;;;;;;;;;;;5059921;28;1314;-70
2022/05/06 14:00:20;;;;;;;;;;;;;;;;;;5060666;28;1059;-71
2022/05/06 14:02:45;;;;;;;;;;;;;;;;;;5058560;28;1317;-70
2022/05/06 14:05:10;;;;;;;;;;;;;;;;;;5060483;28;1902;-69
2022/05/06 14:07:36;;;;;;;;;;;;;;;;;;5060023;28;1263;-69
2022/05/06 14:10:02;;;;;;;;;;;;;;;;;;5061355;28;1321;-69
2022/05/06 14:12:28;;;;;;;;;;;;;;;;;;5060937;28;1246;-68
2022/05/06 14:14:53;;;;;;;;;;;;;;;;;;5061536;28;1235;-69
2022/05/06 14:17:19;;;;;;;;;;;;;;;;;;5061037;28;1140;-70
2022/05/06 14:19:44;;;;;;;;;;;;;;;;;;5059318;28;1335;-68
2022/05/06 14:22:09;;;;;;;;;;;;;;;;;;5057431;28;1517;-69
2022/05/06 14:24:34;;;;;;;;;;;;;;;;;;5058046;28;1969;-69
2022/05/06 14:27:01;;;;;;;;;;;;;;;;;;5059101;28;1242;-70
2022/05/06 14:29:26;;;;;;;;;;;;;;;;;;5059687;28;1286;-70
2022/05/06 14:31:51;;;;;;;;;;;;;;;;;;5059905;28;1204;-70
2022/05/06 14:34:16;;;;;;;;;;;;;;;;;;5058549;28;1292;-68
2022/05/06 14:36:42;;;;;;;;;;;;;;;;;;5057984;28;1271;-69
2022/05/06 14:39:07;;;;;;;;;;;;;;;;;;5059602;28;1280;-70
2022/05/06 14:41:32;;;;;;;;;;;;;;;;;;5060803;28;1407;-69
2022/05/06 14:43:57;;;;;;;;;;;;;;;;;;5058325;28;1897;-69
2022/05/06 14:46:23;;;;;;;;;;;;;;;;;;5059845;28;1260;-68
2022/05/06 14:48:51;;;;;;;;;;;;;;;;;;5058584;28;1271;-69
2022/05/06 14:51:16;;;;;;;;;;;;;;;;;;5059390;28;1661;-69
2022/05/06 14:53:42;;;;;;;;;;;;;;;;;;5060130;28;1274;-70
2022/05/06 14:56:07;;;;;;;;;;;;;;;;;;5059175;28;1274;-69
2022/05/06 14:58:32;;;;;;;;;;;;;;;;;;5060173;28;1400;-68
2022/05/06 15:00:58;;;;;;;;;;;;;;;;;;5058995;28;1527;-69
2022/05/06 15:03:26;;;;;;;;;;;;;;;;;;5059563;28;1985;-68
2022/05/06 15:05:51;;;;;;;;;;;;;;;;;;5060325;28;1243;-68
2022/05/06 15:08:17;;;;;;;;;;;;;;;;;;5060263;28;1338;-69
2022/05/06 15:10:42;;;;;;;;;;;;;;;;;;5059880;28;1313;-68
2022/05/06 15:13:07;;;;;;;;;;;;;;;;;;5060224;28;1203;-69
2022/05/06 15:15:32;;;;;;;;;;;;;;;;;;5058124;28;1275;-69
2022/05/06 15:19:23;;;;;;;;;;;;;;;;;;5060086;28;1791;-69
2022/05/06 15:20:43;;;;;;;;;;;;;;;;;;5059842;28;1092;-68
2022/05/06 15:23:08;;;;;;;;;;;;;;;;;;5059893;28;1355;-67
2022/05/06 15:25:33;;;;;;;;;;;;;;;;;;5059485;28;1956;-69
2022/05/06 15:27:58;;;;;;;;;;;;;;;;;;5060042;28;1291;-69
2022/05/06 15:30:23;;;;;;;;;;;;;;;;;;5058875;28;1273;-68
2022/05/06 15:32:49;;;;;;;;;;;;;;;;;;5060086;28;1355;-69
2022/05/06 15:35:14;;;;;;;;;;;;;;;;;;5058712;28;1397;-69
2022/05/06 15:37:39;;;;;;;;;;;;;;;;;;5059196;28;1680;-68
2022/05/06 15:40:05;;;;;;;;;;;;;;;;;;5059521;28;1245;-68
2022/05/06 15:42:32;;;;;;;;;;;;;;;;;;5059804;28;1349;-69
2022/05/06 15:44:57;;;;;;;;;;;;;;;;;;5058177;28;1890;-70
2022/05/06 15:47:22;;;;;;;;;;;;;;;;;;5059244;28;1316;-70
2022/05/06 15:49:47;;;;;;;;;;;;;;;;;;5058210;28;1547;-68
2022/05/06 15:52:12;;;;;;;;;;;;;;;;;;5054652;28;1485;-68
2022/05/06 15:54:38;;;;;;;;;;;;;;;;;;5059523;28;1828;-68
2022/05/06 15:57:03;;;;;;;;;;;;;;;;;;5057960;28;1474;-69
2022/05/06 15:59:28;;;;;;;;;;;;;;;;;;5059161;28;1246;-69
2022/05/06 16:01:54;;;;;;;;;;;;;;;;;;5058798;28;1481;-69
2022/05/06 16:04:19;;;;;;;;;;;;;;;;;;5061042;28;1953;-69
2022/05/06 16:06:46;;;;;;;;;;;;;;;;;;5057609;28;1374;-69
2022/05/06 16:09:11;;;;;;;;;;;;;;;;;;5058384;28;1526;-69
2022/05/06 16:11:36;;;;;;;;;;;;;;;;;;5058558;28;1535;-69
2022/05/06 16:14:01;;;;;;;;;;;;;;;;;;5057586;28;1426;-69
2022/05/06 16:16:27;;;;;;;;;;;;;;;;;;5058143;28;1316;-69
2022/05/06 16:18:52;;;;;;;;;;;;;;;;;;5058923;28;1362;-69
2022/05/06 16:21:17;;;;;;;;;;;;;;;;;;5059060;28;1365;-69
2022/05/06 16:23:42;;;;;;;;;;;;;;;;;;5056739;28;1977;-70
2022/05/06 16:26:07;;;;;;;;;;;;;;;;;;5057369;28;1453;-70
2022/05/06 16:28:33;;;;;;;;;;;;;;;;;;5058977;28;1363;-70
2022/05/06 16:30:58;;;;;;;;;;;;;;;;;;5059044;28;1483;-69
2022/05/06 16:33:24;;;;;;;;;;;;;;;;;;5060904;28;1756;-70
2022/05/06 16:38:35;;;;;;;;;;;;;;;;;;5057428;28;1448;-69
2022/05/06 16:41:00;;;;;;;;;;;;;;;;;;5057821;28;1502;-69
2022/05/06 16:43:25;;;;;;;;;;;;;;;;;;5054800;28;2129;-70
2022/05/06 16:45:51;;;;;;;;;;;;;;;;;;5057898;28;1965;-70
2022/05/06 16:48:16;;;;;;;;;;;;;;;;;;5060911;28;1414;-69
2022/05/06 16:50:41;;;;;;;;;;;;;;;;;;5061462;28;1460;-70
2022/05/06 16:53:07;;;;;;;;;;;;;;;;;;5062191;28;1306;-68
2022/05/06 16:55:33;;;;;;;;;;;;;;;;;;5058741;28;1434;-69
2022/05/06 16:57:59;;;;;;;;;;;;;;;;;;5060366;28;1450;-67
2022/05/06 17:00:24;;;;;;;;;;;;;;;;;;5060275;28;1564;-69
2022/05/06 17:02:49;;;;;;;;;;;;;;;;;;5062035;28;1300;-68
2022/05/06 17:05:16;;;;;;;;;;;;;;;;;;5060699;28;1889;-69
2022/05/06 17:07:42;;;;;;;;;;;;;;;;;;5059012;28;1529;-70
2022/05/06 17:10:08;;;;;;;;;;;;;;;;;;5058830;28;1451;-68
2022/05/06 17:12:34;;;;;;;;;;;;;;;;;;5061802;28;1348;-68
2022/05/06 17:14:59;;;;;;;;;;;;;;;;;;5061740;28;1424;-68
2022/05/06 17:17:24;;;;;;;;;;;;;;;;;;5061085;28;1544;-68
2022/05/06 17:19:49;;;;;;;;;;;;;;;;;;5061841;28;1302;-67
2022/05/06 17:22:15;;;;;;;;;;;;;;;;;;5061956;28;1266;-67
2022/05/06 17:24:40;;;;;;;;;;;;;;;;;;5060592;28;1893;-71
2022/05/06 17:27:06;;;;;;;;;;;;;;;;;;5061471;28;1253;-70
2022/05/06 17:29:31;;;;;;;;;;;;;;;;;;5061506;28;1349;-69
2022/05/06 17:31:56;;;;;;;;;;;;;;;;;;5061786;28;1321;-70
2022/05/06 17:34:22;;;;;;;;;;;;;;;;;;5060251;28;1259;-71
2022/05/06 17:36:47;;;;;;;;;;;;;;;;;;5061696;28;1258;-69
2022/05/06 17:39:13;;;;;;;;;;;;;;;;;;5061455;28;1294;-69
2022/05/06 17:41:39;;;;;;;;;;;;;;;;;;5062038;28;1258;-69
2022/05/06 17:44:05;;;;;;;;;;;;;;;;;;5061666;28;1952;-70
2022/05/06 17:46:31;;;;;;;;;;;;;;;;;;5061208;28;1364;-69
2022/05/06 17:48:57;;;;;;;;;;;;;;;;;;5061126;28;1361;-69